Time;durP1;ratioP1;P1;durP2;ratioP2;P2;SDS_P1;SDS_P2;PMS_P1;PMS_P2;Temp;Humidity;BMP_temperature;BMP_pressure;BME280_temperature;BME280_humidity;BME280_pressure;Samples;Min_cycle;Max_cycle;Signal;HPM_P1;HPM_P2
2023/03/18 00:00:33;;;;;;;408.40;225.10;;;;;;;;;;5003802;28;20387;-74
2023/03/18 00:02:58;;;;;;;318.67;182.68;;;;;;;;;;5002281;28;20026;-73
2023/03/18 00:05:23;;;;;;;196.13;121.78;;;;;;;;;;4999568;28;20104;-75
2023/03/18 00:07:49;;;;;;;178.80;118.55;;;;;;;;;;5002299;28;20425;-73
2023/03/18 00:10:15;;;;;;;308.67;204.32;;;;;;;;;;5002813;28;20037;-74
2023/03/18 00:12:41;;;;;;;213.63;141.18;;;;;;;;;;4995917;28;20326;-76
2023/03/18 00:15:08;;;;;;;208.60;134.38;;;;;;;;;;5000550;28;20442;-73
2023/03/18 00:17:34;;;;;;;143.50;96.80;;;;;;;;;;5005177;28;20092;-73
2023/03/18 00:20:04;;;;;;;105.53;74.30;;;;;;;;;;5013939;28;20037;-71
2023/03/18 00:22:31;;;;;;;127.78;88.47;;;;;;;;;;5012827;28;20021;-73
2023/03/18 00:24:56;;;;;;;89.15;62.78;;;;;;;;;;5011952;28;20058;-71
2023/03/18 00:27:21;;;;;;;68.35;51.45;;;;;;;;;;5011231;28;20072;-72
2023/03/18 00:29:47;;;;;;;89.03;65.93;;;;;;;;;;5001969;28;20017;-72
2023/03/18 00:32:12;;;;;;;81.75;60.83;;;;;;;;;;5008663;28;20545;-72
2023/03/18 00:34:38;;;;;;;105.45;75.60;;;;;;;;;;5004605;28;20014;-74
2023/03/18 00:37:03;;;;;;;142.80;106.53;;;;;;;;;;4999048;28;20037;-74
2023/03/18 00:39:31;;;;;;;242.00;182.23;;;;;;;;;;5006467;28;20033;-71
2023/03/18 00:41:57;;;;;;;189.05;133.45;;;;;;;;;;5013233;28;20341;-72
2023/03/18 00:44:24;;;;;;;130.30;91.43;;;;;;;;;;5005145;28;20021;-72
2023/03/18 00:46:49;;;;;;;143.48;102.25;;;;;;;;;;5013054;28;20049;-74
2023/03/18 00:49:16;;;;;;;117.15;79.60;;;;;;;;;;5003534;28;20026;-74
2023/03/18 00:51:41;;;;;;;153.65;99.47;;;;;;;;;;5004648;28;20017;-72
2023/03/18 00:54:09;;;;;;;165.18;106.13;;;;;;;;;;5007290;28;20053;-71
2023/03/18 00:56:36;;;;;;;225.02;131.68;;;;;;;;;;5011393;28;20025;-74
2023/03/18 00:59:03;;;;;;;185.13;115.68;;;;;;;;;;5002562;28;20030;-73
2023/03/18 01:01:28;;;;;;;201.95;126.38;;;;;;;;;;5002708;28;20036;-72
2023/03/18 01:03:54;;;;;;;158.07;101.65;;;;;;;;;;5011120;28;20022;-74
2023/03/18 01:06:21;;;;;;;222.15;135.63;;;;;;;;;;5012657;28;20372;-76
2023/03/18 01:08:47;;;;;;;124.28;81.25;;;;;;;;;;5016169;28;20037;-73
2023/03/18 01:11:12;;;;;;;87.22;63.50;;;;;;;;;;5018744;28;20116;-73
2023/03/18 01:13:38;;;;;;;80.30;62.47;;;;;;;;;;5013774;28;20520;-74
2023/03/18 01:16:04;;;;;;;106.15;79.18;;;;;;;;;;5006335;28;20025;-73
2023/03/18 01:18:29;;;;;;;92.90;66.68;;;;;;;;;;5016050;28;20436;-72
2023/03/18 01:20:54;;;;;;;103.30;73.63;;;;;;;;;;5005344;28;20022;-74
2023/03/18 01:23:20;;;;;;;139.15;99.70;;;;;;;;;;5014625;28;20108;-72
2023/03/18 01:25:45;;;;;;;136.63;97.88;;;;;;;;;;5016827;28;20037;-73
2023/03/18 01:28:12;;;;;;;106.90;76.70;;;;;;;;;;5017444;28;20112;-73
2023/03/18 01:30:37;;;;;;;155.40;108.28;;;;;;;;;;5006708;28;20026;-73
2023/03/18 01:33:06;;;;;;;147.60;108.30;;;;;;;;;;5012614;28;20495;-72
2023/03/18 01:35:32;;;;;;;109.33;80.00;;;;;;;;;;5010412;28;20923;-73
2023/03/18 01:37:57;;;;;;;79.22;63.00;;;;;;;;;;5016632;28;20400;-73
2023/03/18 01:40:24;;;;;;;126.20;90.95;;;;;;;;;;5028927;28;20476;-72
2023/03/18 01:42:57;;;;;;;131.90;96.60;;;;;;;;;;5009224;28;20057;-72
2023/03/18 01:45:27;;;;;;;120.38;85.80;;;;;;;;;;5013985;28;20061;-72
2023/03/18 01:47:53;;;;;;;111.22;81.68;;;;;;;;;;5015728;28;20039;-72
2023/03/18 01:50:20;;;;;;;103.63;78.35;;;;;;;;;;5009150;28;20359;-72
2023/03/18 01:52:47;;;;;;;99.85;76.50;;;;;;;;;;5013731;28;20057;-72
2023/03/18 01:55:18;;;;;;;127.90;96.25;;;;;;;;;;5013368;28;20099;-73
2023/03/18 01:57:44;;;;;;;108.35;75.47;;;;;;;;;;5012733;28;20051;-74
2023/03/18 02:00:10;;;;;;;127.50;94.25;;;;;;;;;;5004126;28;20026;-73
2023/03/18 02:02:37;;;;;;;101.38;77.63;;;;;;;;;;5014441;28;20030;-73
2023/03/18 02:05:05;;;;;;;102.28;74.50;;;;;;;;;;5010216;28;20022;-76
2023/03/18 02:07:31;;;;;;;88.07;62.63;;;;;;;;;;5011456;28;20519;-74
2023/03/18 02:09:58;;;;;;;68.95;50.00;;;;;;;;;;5013997;28;20044;-73
2023/03/18 02:12:25;;;;;;;72.70;52.83;;;;;;;;;;5010607;28;20033;-74
2023/03/18 02:14:51;;;;;;;66.47;51.20;;;;;;;;;;5006037;28;20030;-72
2023/03/18 02:17:19;;;;;;;82.38;59.25;;;;;;;;;;5004968;28;20025;-73
2023/03/18 02:19:44;;;;;;;103.47;65.40;;;;;;;;;;5012193;28;20118;-75
2023/03/18 02:22:28;;;;;;;73.40;47.40;;;;;;;;;;5003889;28;20131;-73
2023/03/18 02:25:12;;;;;;;88.28;54.55;;;;;;;;;;5015675;28;20042;-74
2023/03/18 02:27:39;;;;;;;101.45;61.90;;;;;;;;;;5013445;28;20057;-73
2023/03/18 02:30:09;;;;;;;81.78;55.00;;;;;;;;;;5000592;28;20029;-75
2023/03/18 02:32:34;;;;;;;75.90;54.90;;;;;;;;;;5005411;28;20033;-75
2023/03/18 02:35:01;;;;;;;78.28;57.85;;;;;;;;;;5004110;28;20046;-75
2023/03/18 02:37:27;;;;;;;79.28;58.83;;;;;;;;;;5005351;28;20060;-72
2023/03/18 02:39:52;;;;;;;83.13;62.88;;;;;;;;;;5006499;28;20075;-72
2023/03/18 02:42:28;;;;;;;54.83;43.55;;;;;;;;;;5010321;28;20436;-72
2023/03/18 02:44:53;;;;;;;47.90;39.78;;;;;;;;;;5015494;28;20456;-72
2023/03/18 02:47:20;;;;;;;48.97;41.42;;;;;;;;;;5012655;28;20042;-72
2023/03/18 02:49:46;;;;;;;63.47;48.35;;;;;;;;;;5007287;28;20025;-72
2023/03/18 02:52:11;;;;;;;105.28;72.20;;;;;;;;;;5016742;28;20327;-75
2023/03/18 02:54:36;;;;;;;86.70;62.33;;;;;;;;;;5012617;28;20113;-73
2023/03/18 02:57:02;;;;;;;44.60;35.40;;;;;;;;;;5004505;28;20333;-73
2023/03/18 02:59:27;;;;;;;45.70;38.00;;;;;;;;;;5002457;28;20029;-75
2023/03/18 03:01:53;;;;;;;169.63;116.78;;;;;;;;;;5008179;28;20086;-72
2023/03/18 03:04:20;;;;;;;186.98;120.90;;;;;;;;;;5014985;28;20467;-73
2023/03/18 03:06:46;;;;;;;124.47;85.97;;;;;;;;;;5014982;28;20040;-73
2023/03/18 03:09:14;;;;;;;261.88;161.07;;;;;;;;;;5007607;28;20364;-76
2023/03/18 03:11:39;;;;;;;327.00;208.48;;;;;;;;;;5002729;28;20021;-72
2023/03/18 03:14:05;;;;;;;317.33;189.88;;;;;;;;;;5013263;28;20025;-72
2023/03/18 03:16:31;;;;;;;239.93;140.48;;;;;;;;;;5013151;28;20817;-72
2023/03/18 03:18:56;;;;;;;99.88;69.75;;;;;;;;;;5013617;28;20030;-73
2023/03/18 03:21:22;;;;;;;76.70;56.30;;;;;;;;;;5011047;28;20071;-72
2023/03/18 03:23:47;;;;;;;159.32;100.68;;;;;;;;;;5013718;28;20436;-74
2023/03/18 03:26:13;;;;;;;148.82;98.30;;;;;;;;;;5006637;28;20044;-72
2023/03/18 03:28:38;;;;;;;140.32;97.03;;;;;;;;;;5011706;28;20497;-72
2023/03/18 03:31:05;;;;;;;124.22;86.53;;;;;;;;;;5013551;28;20057;-72
2023/03/18 03:33:32;;;;;;;111.57;79.47;;;;;;;;;;5014139;28;20017;-72
2023/03/18 03:35:57;;;;;;;86.15;63.30;;;;;;;;;;5011946;28;20036;-73
2023/03/18 03:38:23;;;;;;;63.60;47.83;;;;;;;;;;5013039;28;20025;-72
2023/03/18 03:40:48;;;;;;;58.13;44.33;;;;;;;;;;5010989;28;20025;-71
2023/03/18 03:43:14;;;;;;;415.00;295.10;;;;;;;;;;5008583;28;20029;-72
2023/03/18 03:45:40;;;;;;;141.10;101.43;;;;;;;;;;5010798;28;20084;-71
2023/03/18 03:48:07;;;;;;;188.38;136.50;;;;;;;;;;5013052;28;20085;-71
2023/03/18 03:50:32;;;;;;;215.63;153.80;;;;;;;;;;5008227;28;20437;-73
2023/03/18 03:52:57;;;;;;;289.35;217.88;;;;;;;;;;5008634;28;20033;-71
2023/03/18 03:55:23;;;;;;;134.88;103.50;;;;;;;;;;5012807;28;20029;-72
2023/03/18 03:57:49;;;;;;;68.70;53.20;;;;;;;;;;5006877;28;20399;-71
2023/03/18 04:00:17;;;;;;;71.93;57.17;;;;;;;;;;5005815;28;20018;-71
2023/03/18 04:02:44;;;;;;;53.00;42.60;;;;;;;;;;5009110;28;20040;-71
2023/03/18 04:05:10;;;;;;;55.35;42.70;;;;;;;;;;5013500;28;20370;-72
2023/03/18 04:07:36;;;;;;;76.45;58.10;;;;;;;;;;5012102;28;20440;-71
2023/03/18 04:10:01;;;;;;;137.32;111.43;;;;;;;;;;5012777;28;20018;-73
2023/03/18 04:12:27;;;;;;;117.43;87.43;;;;;;;;;;5004002;28;20132;-71
2023/03/18 04:14:52;;;;;;;247.18;194.82;;;;;;;;;;5020355;28;20424;-71
2023/03/18 04:17:17;;;;;;;114.95;89.60;;;;;;;;;;5009836;28;20042;-71
2023/03/18 04:19:43;;;;;;;82.75;63.85;;;;;;;;;;5010193;28;20026;-71
2023/03/18 04:22:09;;;;;;;93.43;66.68;;;;;;;;;;5014769;28;20488;-71
2023/03/18 04:24:35;;;;;;;137.80;100.68;;;;;;;;;;5013930;28;20017;-71
2023/03/18 04:27:00;;;;;;;100.65;68.55;;;;;;;;;;5014489;28;20107;-71
2023/03/18 04:29:26;;;;;;;88.53;70.65;;;;;;;;;;5006195;28;20441;-71
2023/03/18 04:31:51;;;;;;;56.83;48.40;;;;;;;;;;5005166;28;20318;-72
2023/03/18 04:34:16;;;;;;;45.70;37.58;;;;;;;;;;5003685;28;20128;-71
2023/03/18 04:36:41;;;;;;;48.03;39.97;;;;;;;;;;5014401;28;20108;-73
2023/03/18 04:39:08;;;;;;;52.08;42.60;;;;;;;;;;5013762;28;20449;-71
2023/03/18 04:41:34;;;;;;;85.22;64.55;;;;;;;;;;5014992;28;20025;-71
2023/03/18 04:43:59;;;;;;;61.58;50.25;;;;;;;;;;5011565;28;20337;-72
2023/03/18 04:46:28;;;;;;;54.03;42.97;;;;;;;;;;5002726;28;20448;-69
2023/03/18 04:48:54;;;;;;;42.42;35.97;;;;;;;;;;5012256;28;20022;-71
2023/03/18 04:51:19;;;;;;;40.88;33.80;;;;;;;;;;5010629;28;20028;-70
2023/03/18 04:53:45;;;;;;;39.22;33.72;;;;;;;;;;5013488;28;20131;-71
2023/03/18 04:56:11;;;;;;;53.10;41.42;;;;;;;;;;5011538;28;20032;-71
2023/03/18 04:58:37;;;;;;;45.03;35.22;;;;;;;;;;5012135;28;20029;-72
2023/03/18 05:01:03;;;;;;;127.15;87.03;;;;;;;;;;4999928;28;20108;-73
2023/03/18 05:03:28;;;;;;;132.23;91.55;;;;;;;;;;5014044;28;20033;-71
2023/03/18 05:05:54;;;;;;;159.90;112.97;;;;;;;;;;5008045;28;20033;-71
2023/03/18 05:08:20;;;;;;;185.35;125.57;;;;;;;;;;5009569;28;20449;-74
2023/03/18 05:10:46;;;;;;;156.02;111.20;;;;;;;;;;5014199;28;20429;-73
2023/03/18 05:13:11;;;;;;;123.47;84.35;;;;;;;;;;5011732;28;20043;-71
2023/03/18 05:15:37;;;;;;;100.70;73.05;;;;;;;;;;5012324;28;20033;-71
2023/03/18 05:18:03;;;;;;;83.47;63.83;;;;;;;;;;5005491;28;20181;-72
2023/03/18 05:20:29;;;;;;;70.53;55.55;;;;;;;;;;5001604;28;20021;-71
2023/03/18 05:22:54;;;;;;;71.10;56.17;;;;;;;;;;5010474;28;20499;-72
2023/03/18 05:25:20;;;;;;;87.07;62.22;;;;;;;;;;5013793;28;20024;-72
2023/03/18 05:27:46;;;;;;;87.72;69.43;;;;;;;;;;5011157;28;20026;-72
2023/03/18 05:30:12;;;;;;;82.38;62.92;;;;;;;;;;5014338;28;20041;-73
2023/03/18 05:32:38;;;;;;;106.97;95.20;;;;;;;;;;5012543;28;20111;-72
2023/03/18 05:35:04;;;;;;;88.03;72.68;;;;;;;;;;5009310;28;20075;-71
2023/03/18 05:37:30;;;;;;;74.55;56.95;;;;;;;;;;5008176;28;20034;-71
2023/03/18 05:39:55;;;;;;;62.45;48.83;;;;;;;;;;4989248;28;20025;-72
2023/03/18 05:42:20;;;;;;;55.97;41.20;;;;;;;;;;4992544;28;20336;-72
2023/03/18 05:44:46;;;;;;;43.58;35.33;;;;;;;;;;5006583;28;20021;-74
2023/03/18 05:47:12;;;;;;;47.03;37.17;;;;;;;;;;5007630;28;20459;-72
2023/03/18 05:49:37;;;;;;;46.47;41.47;;;;;;;;;;4991806;28;20033;-72
2023/03/18 05:52:03;;;;;;;42.80;35.75;;;;;;;;;;4991894;28;20029;-72
2023/03/18 05:54:28;;;;;;;41.58;35.78;;;;;;;;;;5000740;28;20026;-73
2023/03/18 05:56:53;;;;;;;57.08;44.80;;;;;;;;;;5005505;28;20349;-73
2023/03/18 05:59:22;;;;;;;54.72;44.22;;;;;;;;;;5016559;28;20379;-73
2023/03/18 06:01:48;;;;;;;175.10;114.30;;;;;;;;;;5013265;28;20025;-77
2023/03/18 06:04:16;;;;;;;351.05;213.90;;;;;;;;;;5010353;28;20038;-76
2023/03/18 06:06:42;;;;;;;292.17;186.00;;;;;;;;;;5006535;28;20029;-76
2023/03/18 06:09:07;;;;;;;161.15;104.63;;;;;;;;;;5006170;28;20364;-75
2023/03/18 06:11:33;;;;;;;61.58;46.50;;;;;;;;;;5013469;28;20026;-75
2023/03/18 06:13:58;;;;;;;81.43;61.40;;;;;;;;;;5015981;28;20809;-76
2023/03/18 06:16:24;;;;;;;86.70;64.00;;;;;;;;;;5015593;28;20034;-74
2023/03/18 06:18:50;;;;;;;82.00;61.50;;;;;;;;;;5010588;28;20030;-75
2023/03/18 06:21:15;;;;;;;122.95;92.53;;;;;;;;;;5008471;28;20360;-76
2023/03/18 06:23:40;;;;;;;119.43;90.47;;;;;;;;;;5015790;28;20041;-75
2023/03/18 06:26:07;;;;;;;171.32;133.45;;;;;;;;;;5006939;28;20035;-75
2023/03/18 06:28:33;;;;;;;152.20;125.07;;;;;;;;;;5005691;28;20095;-75
2023/03/18 06:30:58;;;;;;;131.88;104.75;;;;;;;;;;5009487;28;20444;-75
2023/03/18 06:33:24;;;;;;;110.53;88.10;;;;;;;;;;5016142;28;20427;-75
2023/03/18 06:35:51;;;;;;;98.70;75.00;;;;;;;;;;5011731;28;20404;-76
2023/03/18 06:38:16;;;;;;;121.20;90.50;;;;;;;;;;5014632;28;20138;-75
2023/03/18 06:40:43;;;;;;;120.93;92.75;;;;;;;;;;5016031;28;20313;-74
2023/03/18 06:43:09;;;;;;;113.82;87.93;;;;;;;;;;4998908;28;20018;-74
2023/03/18 06:45:34;;;;;;;114.20;90.35;;;;;;;;;;4995843;28;20069;-75
2023/03/18 06:48:01;;;;;;;102.00;80.50;;;;;;;;;;5003521;28;20025;-77
2023/03/18 06:50:26;;;;;;;73.50;61.40;;;;;;;;;;5001482;28;20437;-77
2023/03/18 06:52:52;;;;;;;62.47;50.80;;;;;;;;;;5008694;28;20038;-75
2023/03/18 06:55:17;;;;;;;54.20;44.35;;;;;;;;;;4996307;28;20033;-80
2023/03/18 06:57:43;;;;;;;75.63;58.38;;;;;;;;;;5005680;28;20104;-78
2023/03/18 07:00:09;;;;;;;142.98;111.45;;;;;;;;;;5004492;28;20025;-74
2023/03/18 07:02:35;;;;;;;133.75;105.53;;;;;;;;;;5001623;28;20037;-76
2023/03/18 07:05:01;;;;;;;124.18;93.68;;;;;;;;;;5003090;28;20029;-78
2023/03/18 07:07:26;;;;;;;100.78;79.07;;;;;;;;;;5007960;28;20036;-78
2023/03/18 07:09:52;;;;;;;70.40;54.65;;;;;;;;;;5015590;28;20136;-79
2023/03/18 07:12:18;;;;;;;26.67;22.80;;;;;;;;;;5006589;28;20056;-78
2023/03/18 07:14:43;;;;;;;56.05;47.05;;;;;;;;;;5012757;28;20440;-77
2023/03/18 07:17:09;;;;;;;65.50;55.92;;;;;;;;;;5014218;28;20033;-78
2023/03/18 07:19:34;;;;;;;73.35;58.40;;;;;;;;;;5010622;28;20014;-76
2023/03/18 07:22:01;;;;;;;102.35;80.15;;;;;;;;;;5000921;28;20099;-77
2023/03/18 07:24:27;;;;;;;77.50;63.95;;;;;;;;;;5011738;28;20099;-78
2023/03/18 07:26:53;;;;;;;61.03;51.78;;;;;;;;;;5012135;28;20075;-75
2023/03/18 07:29:19;;;;;;;79.07;63.70;;;;;;;;;;5013614;28;20036;-76
2023/03/18 07:31:44;;;;;;;93.28;70.53;;;;;;;;;;5015715;28;20318;-73
2023/03/18 07:34:11;;;;;;;91.28;65.05;;;;;;;;;;5010502;28;20098;-74
2023/03/18 07:36:37;;;;;;;63.97;49.95;;;;;;;;;;5009973;28;20338;-73
2023/03/18 07:39:03;;;;;;;51.15;42.85;;;;;;;;;;5013703;28;20123;-73
2023/03/18 07:41:28;;;;;;;67.05;49.53;;;;;;;;;;5014647;28;20051;-73
2023/03/18 07:43:54;;;;;;;127.40;74.80;;;;;;;;;;5005657;28;20034;-73
2023/03/18 07:46:19;;;;;;;40.38;33.33;;;;;;;;;;5004283;28;20041;-76
2023/03/18 07:48:45;;;;;;;128.43;82.15;;;;;;;;;;5013130;28;20427;-76
2023/03/18 07:51:11;;;;;;;117.85;77.82;;;;;;;;;;5016952;28;20038;-73
2023/03/18 07:53:37;;;;;;;68.07;49.53;;;;;;;;;;5029725;28;20030;-75
2023/03/18 07:56:02;;;;;;;80.25;55.40;;;;;;;;;;5017664;28;20363;-73
2023/03/18 07:58:27;;;;;;;65.55;45.95;;;;;;;;;;5015824;28;20063;-73
2023/03/18 08:00:53;;;;;;;122.43;70.95;;;;;;;;;;5011184;28;20037;-73
2023/03/18 08:03:18;;;;;;;52.78;38.97;;;;;;;;;;5009055;28;20022;-75
2023/03/18 08:05:43;;;;;;;80.82;55.75;;;;;;;;;;5008132;28;20044;-74
2023/03/18 08:08:09;;;;;;;102.70;68.75;;;;;;;;;;5011847;28;20091;-74
2023/03/18 08:10:35;;;;;;;78.07;56.58;;;;;;;;;;5012886;28;20111;-74
2023/03/18 08:13:01;;;;;;;76.53;54.60;;;;;;;;;;5015694;28;20452;-74
2023/03/18 08:15:27;;;;;;;114.97;79.97;;;;;;;;;;5011959;28;20087;-74
2023/03/18 08:17:52;;;;;;;127.47;77.38;;;;;;;;;;5015428;28;20026;-74
2023/03/18 08:20:18;;;;;;;103.68;68.72;;;;;;;;;;5011697;28;20033;-72
2023/03/18 08:22:44;;;;;;;205.13;118.25;;;;;;;;;;5002336;28;20089;-77
2023/03/18 08:25:10;;;;;;;84.85;57.92;;;;;;;;;;5010506;28;20397;-76
2023/03/18 08:27:36;;;;;;;91.38;68.63;;;;;;;;;;5006058;28;20651;-76
2023/03/18 08:30:01;;;;;;;68.75;53.70;;;;;;;;;;5003391;28;20116;-74
2023/03/18 08:32:26;;;;;;;51.85;43.30;;;;;;;;;;5005808;28;20037;-75
2023/03/18 08:34:52;;;;;;;57.38;49.10;;;;;;;;;;5002486;28;20075;-77
2023/03/18 08:37:18;;;;;;;41.47;36.97;;;;;;;;;;5002085;28;20041;-73
2023/03/18 08:39:43;;;;;;;58.83;48.83;;;;;;;;;;5004280;28;20025;-74
2023/03/18 08:42:09;;;;;;;60.08;48.38;;;;;;;;;;4998100;28;20460;-74
2023/03/18 08:44:34;;;;;;;56.47;48.25;;;;;;;;;;5017127;28;20372;-74
2023/03/18 08:47:00;;;;;;;52.88;44.20;;;;;;;;;;5014332;28;20685;-73
2023/03/18 08:49:25;;;;;;;84.78;63.45;;;;;;;;;;5008399;28;20025;-74
2023/03/18 08:51:51;;;;;;;37.63;33.53;;;;;;;;;;4996052;28;20033;-75
2023/03/18 08:54:18;;;;;;;76.70;56.13;;;;;;;;;;5000125;28;20425;-75
2023/03/18 08:56:43;;;;;;;62.20;50.47;;;;;;;;;;4989862;28;20029;-77
2023/03/18 08:59:09;;;;;;;52.72;46.75;;;;;;;;;;5006699;28;20036;-73
2023/03/18 09:01:35;;;;;;;54.20;43.83;;;;;;;;;;5013835;28;20021;-71
2023/03/18 09:04:00;;;;;;;61.15;47.90;;;;;;;;;;5008035;28;20037;-75
2023/03/18 09:06:26;;;;;;;54.22;41.67;;;;;;;;;;4977728;28;20064;-76
2023/03/18 09:08:52;;;;;;;44.13;37.45;;;;;;;;;;4995789;28;20033;-75
2023/03/18 09:11:17;;;;;;;51.47;41.75;;;;;;;;;;4993244;28;20030;-76
2023/03/18 09:13:42;;;;;;;44.92;38.00;;;;;;;;;;4994187;28;20018;-73
2023/03/18 09:16:09;;;;;;;38.53;32.30;;;;;;;;;;5011776;28;20049;-76
2023/03/18 09:18:34;;;;;;;78.63;53.90;;;;;;;;;;4996270;28;20091;-74
2023/03/18 09:21:00;;;;;;;68.82;46.78;;;;;;;;;;4997810;28;20022;-72
2023/03/18 09:23:26;;;;;;;40.20;33.80;;;;;;;;;;5013613;28;20067;-72
2023/03/18 09:25:53;;;;;;;39.63;32.83;;;;;;;;;;4997504;28;20034;-72
2023/03/18 09:28:19;;;;;;;49.20;40.22;;;;;;;;;;4992973;28;20037;-75
2023/03/18 09:30:44;;;;;;;39.40;34.40;;;;;;;;;;4993235;28;20615;-75
2023/03/18 09:33:10;;;;;;;37.83;31.33;;;;;;;;;;5004744;28;20385;-76
2023/03/18 09:35:36;;;;;;;40.15;35.70;;;;;;;;;;4992186;28;20061;-74
2023/03/18 09:38:02;;;;;;;29.77;26.67;;;;;;;;;;4992605;28;20350;-76
2023/03/18 09:40:33;;;;;;;54.65;42.67;;;;;;;;;;4989423;28;20021;-76
2023/03/18 09:43:04;;;;;;;28.10;24.27;;;;;;;;;;4995212;28;20025;-75
2023/03/18 09:45:39;;;;;;;26.48;22.38;;;;;;;;;;4993797;28;20057;-73
2023/03/18 09:48:11;;;;;;;85.38;59.58;;;;;;;;;;4995482;28;20153;-77
2023/03/18 09:50:55;;;;;;;48.10;32.05;;;;;;;;;;4996385;28;20061;-75
2023/03/18 09:53:34;;;;;;;73.90;54.42;;;;;;;;;;5017022;28;20486;-74
2023/03/18 09:56:01;;;;;;;28.00;24.00;;;;;;;;;;5008929;28;20091;-76
2023/03/18 09:58:46;;;;;;;40.15;35.63;;;;;;;;;;5016040;28;20055;-74
2023/03/18 10:01:12;;;;;;;44.65;38.30;;;;;;;;;;5013857;28;20017;-72
2023/03/18 10:03:41;;;;;;;55.15;47.50;;;;;;;;;;5015147;28;20337;-72
2023/03/18 10:06:15;;;;;;;62.67;48.10;;;;;;;;;;5013328;28;20060;-74
2023/03/18 10:08:43;;;;;;;103.82;79.88;;;;;;;;;;5015195;28;20044;-77
2023/03/18 10:11:20;;;;;;;37.28;30.05;;;;;;;;;;5018289;28;20030;-76
2023/03/18 10:14:05;;;;;;;23.33;19.90;;;;;;;;;;5007857;28;20029;-76
2023/03/18 10:16:32;;;;;;;13.43;11.15;;;;;;;;;;5012072;28;20420;-75
2023/03/18 10:18:58;;;;;;;13.80;12.27;;;;;;;;;;5015650;28;20064;-75
2023/03/18 10:21:59;;;;;;;13.82;12.20;;;;;;;;;;5014200;28;20325;-73
2023/03/18 10:24:34;;;;;;;21.60;18.58;;;;;;;;;;5024973;28;20036;-74
2023/03/18 10:27:18;;;;;;;23.40;19.58;;;;;;;;;;5013437;28;20405;-74
2023/03/18 10:29:48;;;;;;;13.60;12.23;;;;;;;;;;5001254;28;20025;-73
2023/03/18 10:32:22;;;;;;;11.23;9.30;;;;;;;;;;5013632;28;20026;-72
2023/03/18 10:34:47;;;;;;;23.92;19.23;;;;;;;;;;5000885;28;20025;-72
2023/03/18 10:37:32;;;;;;;16.23;14.25;;;;;;;;;;5006653;28;20511;-73
2023/03/18 10:39:58;;;;;;;16.30;14.55;;;;;;;;;;5012959;28;20593;-73
2023/03/18 10:42:28;;;;;;;21.70;19.38;;;;;;;;;;5011315;28;20025;-73
2023/03/18 10:44:56;;;;;;;21.30;19.00;;;;;;;;;;5003657;28;20045;-75
2023/03/18 10:47:23;;;;;;;28.00;24.40;;;;;;;;;;5001385;28;20147;-74
2023/03/18 10:49:56;;;;;;;26.30;21.38;;;;;;;;;;5002077;28;20033;-75
2023/03/18 10:52:42;;;;;;;14.85;11.43;;;;;;;;;;5008889;28;20030;-72
2023/03/18 10:55:19;;;;;;;15.45;13.35;;;;;;;;;;5011109;28;20037;-71
2023/03/18 10:57:45;;;;;;;14.82;13.23;;;;;;;;;;5007841;28;20091;-76
2023/03/18 11:00:22;;;;;;;12.93;11.30;;;;;;;;;;5014783;28;20427;-74
2023/03/18 11:02:48;;;;;;;17.15;15.45;;;;;;;;;;5012306;28;20022;-75
2023/03/18 11:05:25;;;;;;;8.82;8.02;;;;;;;;;;5007570;28;20113;-76
2023/03/18 11:08:13;;;;;;;12.15;10.10;;;;;;;;;;5012373;28;20460;-76
2023/03/18 11:10:45;;;;;;;12.52;10.35;;;;;;;;;;4991204;28;20038;-77
2023/03/18 11:13:16;;;;;;;12.27;10.27;;;;;;;;;;5003949;28;20334;-75
2023/03/18 11:15:44;;;;;;;15.55;11.30;;;;;;;;;;5001620;28;20026;-76
2023/03/18 11:18:14;;;;;;;17.48;15.10;;;;;;;;;;5008152;28;20441;-75
2023/03/18 11:20:44;;;;;;;19.20;16.67;;;;;;;;;;5015478;28;20025;-74
2023/03/18 11:23:18;;;;;;;24.63;18.90;;;;;;;;;;5007543;28;20097;-74
2023/03/18 11:25:47;;;;;;;90.10;57.42;;;;;;;;;;5002269;28;20032;-75
2023/03/18 11:28:12;;;;;;;;;;;;;;;;;;5001055;28;20026;-74
2023/03/18 11:30:47;;;;;;;41.78;28.13;;;;;;;;;;5002890;28;20252;-74
2023/03/18 11:33:13;;;;;;;52.88;35.60;;;;;;;;;;4996807;28;20393;-74
2023/03/18 11:35:48;;;;;;;63.00;42.45;;;;;;;;;;4996735;28;20352;-74
2023/03/18 11:38:14;;;;;;;90.40;57.08;;;;;;;;;;4997330;28;20029;-74
2023/03/18 11:40:40;;;;;;;47.75;33.78;;;;;;;;;;5000110;28;20036;-73
2023/03/18 11:43:14;;;;;;;67.65;44.28;;;;;;;;;;5000527;28;20029;-73
2023/03/18 11:45:43;;;;;;;56.33;37.00;;;;;;;;;;5001112;28;20129;-74
2023/03/18 11:48:22;;;;;;;17.50;13.82;;;;;;;;;;4999113;28;20034;-73
2023/03/18 11:51:07;;;;;;;56.60;36.65;;;;;;;;;;5000825;28;20044;-74
2023/03/18 11:53:56;;;;;;;126.07;82.38;;;;;;;;;;5002731;28;20120;-75
2023/03/18 11:56:27;;;;;;;61.75;41.25;;;;;;;;;;5007095;28;20120;-75
2023/03/18 11:58:53;;;;;;;32.90;25.58;;;;;;;;;;4991604;28;20083;-73
2023/03/18 12:01:28;;;;;;;33.33;26.98;;;;;;;;;;4993931;28;20033;-76
2023/03/18 12:04:07;;;;;;;40.13;29.58;;;;;;;;;;4993946;28;20357;-76
2023/03/18 12:06:53;;;;;;;34.78;27.50;;;;;;;;;;4992943;28;20034;-76
2023/03/18 12:09:18;;;;;;;25.98;20.55;;;;;;;;;;4989913;28;20048;-74
2023/03/18 12:11:49;;;;;;;39.20;30.25;;;;;;;;;;4991292;28;20030;-73
2023/03/18 12:14:34;;;;;;;44.15;35.45;;;;;;;;;;4993878;28;20175;-75
2023/03/18 12:17:18;;;;;;;55.45;42.53;;;;;;;;;;5007492;28;20037;-77
2023/03/18 12:19:49;;;;;;;25.02;19.45;;;;;;;;;;5010674;28;20025;-79
2023/03/18 12:22:41;;;;;;;39.03;30.83;;;;;;;;;;5002035;28;20025;-75
2023/03/18 12:25:06;;;;;;;32.47;26.20;;;;;;;;;;5030872;28;20033;-75
2023/03/18 12:27:46;;;;;;;15.55;12.45;;;;;;;;;;5016364;28;20048;-76
2023/03/18 12:30:31;;;;;;;24.25;19.83;;;;;;;;;;5019066;28;20037;-76
2023/03/18 12:33:05;;;;;;;10.82;9.73;;;;;;;;;;5014943;28;20080;-78
2023/03/18 12:35:42;;;;;;;21.20;18.05;;;;;;;;;;5024548;28;20160;-77
2023/03/18 12:38:08;;;;;;;23.95;20.48;;;;;;;;;;5033211;28;20048;-75
2023/03/18 12:40:40;;;;;;;17.20;15.35;;;;;;;;;;5017809;28;20440;-76
2023/03/18 12:43:08;;;;;;;14.25;12.77;;;;;;;;;;5020445;28;20480;-76
2023/03/18 12:45:39;;;;;;;14.90;13.40;;;;;;;;;;5030828;28;20053;-79
2023/03/18 12:48:11;;;;;;;29.85;23.13;;;;;;;;;;5031284;28;20040;-77
2023/03/18 12:50:46;;;;;;;49.00;33.35;;;;;;;;;;5032290;28;20488;-76
2023/03/18 12:53:17;;;;;;;40.85;30.63;;;;;;;;;;5035624;28;20029;-74
2023/03/18 12:55:46;;;;;;;83.93;53.17;;;;;;;;;;5029319;28;20042;-78
2023/03/18 12:58:21;;;;;;;15.98;12.10;;;;;;;;;;5032524;28;20026;-76
2023/03/18 13:00:53;;;;;;;9.10;7.70;;;;;;;;;;5029428;28;20044;-76
2023/03/18 13:03:37;;;;;;;53.63;37.67;;;;;;;;;;5018127;28;20041;-76
2023/03/18 13:06:07;;;;;;;28.92;23.98;;;;;;;;;;5017504;28;20029;-75
2023/03/18 13:08:52;;;;;;;19.45;16.73;;;;;;;;;;5015640;28;20111;-78
2023/03/18 13:11:30;;;;;;;16.85;13.25;;;;;;;;;;5019236;28;20049;-77
2023/03/18 13:13:59;;;;;;;27.85;20.08;;;;;;;;;;5016700;28;20024;-78
2023/03/18 13:16:25;;;;;;;10.10;7.70;;;;;;;;;;5015588;28;20026;-77
2023/03/18 13:18:51;;;;;;;59.80;38.70;;;;;;;;;;5018115;28;21317;-76
2023/03/18 13:21:21;;;;;;;38.65;26.40;;;;;;;;;;5018527;28;20029;-78
2023/03/18 13:24:05;;;;;;;42.08;30.00;;;;;;;;;;5017830;28;20760;-78
2023/03/18 13:26:30;;;;;;;49.05;31.88;;;;;;;;;;5018546;28;20132;-77
2023/03/18 13:29:01;;;;;;;99.70;56.25;;;;;;;;;;5016412;28;20700;-79
2023/03/18 13:31:45;;;;;;;55.08;36.47;;;;;;;;;;5018491;28;20033;-76
2023/03/18 13:34:25;;;;;;;39.70;25.75;;;;;;;;;;5017671;28;20116;-76
2023/03/18 13:36:50;;;;;;;75.07;44.95;;;;;;;;;;5019219;28;20063;-75
2023/03/18 13:39:18;;;;;;;127.70;69.97;;;;;;;;;;5014689;28;20053;-77
2023/03/18 13:42:02;;;;;;;130.10;80.80;;;;;;;;;;5019609;28;20030;-75
2023/03/18 13:44:41;;;;;;;35.72;29.15;;;;;;;;;;5015544;28;20025;-75
2023/03/18 13:47:07;;;;;;;39.30;32.70;;;;;;;;;;5015932;28;20045;-76
2023/03/18 13:49:36;;;;;;;36.38;28.73;;;;;;;;;;5031994;28;20348;-76
2023/03/18 13:52:03;;;;;;;48.45;37.38;;;;;;;;;;5016612;28;20022;-75
2023/03/18 13:54:39;;;;;;;23.50;20.50;;;;;;;;;;5015050;28;20049;-76
2023/03/18 13:57:31;;;;;;;35.17;24.33;;;;;;;;;;5006182;28;20083;-75
2023/03/18 14:00:15;;;;;;;95.38;60.17;;;;;;;;;;5015014;28;20532;-75
2023/03/18 14:02:46;;;;;;;76.15;46.03;;;;;;;;;;5017998;28;20029;-75
2023/03/18 14:05:44;;;;;;;268.15;138.30;;;;;;;;;;5017576;28;20108;-76
2023/03/18 14:08:28;;;;;;;109.43;56.47;;;;;;;;;;5027251;28;20042;-78
2023/03/18 14:11:21;;;;;;;29.80;21.75;;;;;;;;;;5018752;28;20014;-75
2023/03/18 14:13:46;;;;;;;13.32;11.75;;;;;;;;;;5017247;28;20100;-75
2023/03/18 14:16:13;;;;;;;22.83;17.60;;;;;;;;;;5018222;28;20452;-77
2023/03/18 14:18:39;;;;;;;22.55;16.48;;;;;;;;;;5017224;28;20408;-76